Time;durP1;ratioP1;P1;durP2;ratioP2;P2;SDS_P1;SDS_P2;PMS_P1;PMS_P2;Temp;Humidity;BMP_temperature;BMP_pressure;BME280_temperature;BME280_humidity;BME280_pressure;Samples;Min_cycle;Max_cycle;Signal;HPM_P1;HPM_P2
2024/04/18 00:01:13;;;;;;;11.80;7.65;;;;;;;;;;5324237;26;20001;-81
2024/04/18 00:03:40;;;;;;;12.40;7.95;;;;;;;;;;5318509;26;20006;-81
2024/04/18 00:06:07;;;;;;;13.52;8.10;;;;;;;;;;5332188;26;20013;-81
2024/04/18 00:08:33;;;;;;;15.35;9.20;;;;;;;;;;5325759;26;20019;-81
2024/04/18 00:11:00;;;;;;;12.93;8.40;;;;;;;;;;5321381;26;20391;-82
2024/04/18 00:13:27;;;;;;;11.77;7.63;;;;;;;;;;5329622;26;20106;-81
2024/04/18 00:15:54;;;;;;;10.52;7.75;;;;;;;;;;5339778;26;20000;-80
2024/04/18 00:18:20;;;;;;;10.57;8.13;;;;;;;;;;5332287;26;20078;-81
2024/04/18 00:20:47;;;;;;;10.30;7.25;;;;;;;;;;5353748;26;20007;-82
2024/04/18 00:23:14;;;;;;;9.85;6.80;;;;;;;;;;5337434;26;20008;-82
2024/04/18 00:25:41;;;;;;;16.35;9.55;;;;;;;;;;5323181;26;20005;-82
2024/04/18 00:28:07;;;;;;;11.73;8.40;;;;;;;;;;5323900;26;20355;-81
2024/04/18 00:30:34;;;;;;;11.23;7.20;;;;;;;;;;5324003;26;20541;-82
2024/04/18 00:33:01;;;;;;;8.80;7.43;;;;;;;;;;5351979;26;20083;-81
2024/04/18 00:35:28;;;;;;;13.05;8.55;;;;;;;;;;5307114;26;20393;-81
2024/04/18 00:37:54;;;;;;;11.13;7.72;;;;;;;;;;5323505;26;20016;-81
2024/04/18 00:40:21;;;;;;;13.65;8.40;;;;;;;;;;5324717;26;20005;-82
2024/04/18 00:42:48;;;;;;;10.80;8.02;;;;;;;;;;5323880;26;20347;-81
2024/04/18 00:45:15;;;;;;;11.27;8.80;;;;;;;;;;5317765;26;20006;-81
2024/04/18 00:47:42;;;;;;;16.52;9.23;;;;;;;;;;5323059;26;20005;-82
2024/04/18 00:50:10;;;;;;;11.68;8.75;;;;;;;;;;5323405;26;20467;-82
2024/04/18 00:52:36;;;;;;;12.95;8.77;;;;;;;;;;5353920;26;20008;-82
2024/04/18 00:55:03;;;;;;;12.80;8.60;;;;;;;;;;5324258;26;20001;-81
2024/04/18 00:57:32;;;;;;;12.63;8.80;;;;;;;;;;5345319;26;20385;-82
2024/04/18 00:59:58;;;;;;;13.60;9.25;;;;;;;;;;5350104;26;19993;-81
2024/04/18 01:02:25;;;;;;;14.07;9.15;;;;;;;;;;5292815;26;20008;-82
2024/04/18 01:04:52;;;;;;;11.27;8.88;;;;;;;;;;5316712;26;20016;-81
2024/04/18 01:07:19;;;;;;;13.02;8.88;;;;;;;;;;5317096;26;20009;-82
2024/04/18 01:09:45;;;;;;;11.80;8.80;;;;;;;;;;5317824;26;20004;-81
2024/04/18 01:12:12;;;;;;;10.02;8.18;;;;;;;;;;5318416;26;20023;-81
2024/04/18 01:14:40;;;;;;;13.68;8.77;;;;;;;;;;5318382;26;20013;-81
2024/04/18 01:17:07;;;;;;;13.60;8.18;;;;;;;;;;5313630;26;20006;-81
2024/04/18 01:19:34;;;;;;;11.05;7.68;;;;;;;;;;5306109;26;20004;-82
2024/04/18 01:22:00;;;;;;;10.13;7.45;;;;;;;;;;5308534;26;20341;-82
2024/04/18 01:24:31;;;;;;;10.45;7.80;;;;;;;;;;5321045;26;20004;-83
2024/04/18 01:26:58;;;;;;;11.68;8.65;;;;;;;;;;5320210;26;20086;-83
2024/04/18 01:29:26;;;;;;;9.70;8.00;;;;;;;;;;5291644;26;20005;-83
2024/04/18 01:31:53;;;;;;;11.68;8.15;;;;;;;;;;5291931;26;20056;-82
2024/04/18 01:34:20;;;;;;;20.85;8.23;;;;;;;;;;5318983;26;20001;-81
2024/04/18 01:36:48;;;;;;;13.32;8.65;;;;;;;;;;5349827;26;20020;-82
2024/04/18 01:39:15;;;;;;;13.10;8.70;;;;;;;;;;5318889;26;20001;-82
2024/04/18 01:41:42;;;;;;;10.70;8.35;;;;;;;;;;5333837;26;20810;-81
2024/04/18 01:44:10;;;;;;;16.48;10.25;;;;;;;;;;5332562;26;20001;-81
2024/04/18 01:46:37;;;;;;;13.20;8.90;;;;;;;;;;5287343;26;20005;-82
2024/04/18 01:49:04;;;;;;;12.77;10.05;;;;;;;;;;5318477;26;20005;-82
2024/04/18 01:51:30;;;;;;;13.90;9.43;;;;;;;;;;5288587;26;20358;-81
2024/04/18 01:53:57;;;;;;;13.15;9.15;;;;;;;;;;5318181;26;20005;-81
2024/04/18 01:56:24;;;;;;;13.30;9.88;;;;;;;;;;5317869;26;20016;-81
2024/04/18 01:58:50;;;;;;;14.38;10.00;;;;;;;;;;5317315;26;20355;-81
2024/04/18 02:01:22;;;;;;;13.10;9.02;;;;;;;;;;5288630;26;20406;-84
2024/04/18 02:03:49;;;;;;;14.13;9.75;;;;;;;;;;5318000;26;20004;-84
2024/04/18 02:06:16;;;;;;;12.73;9.20;;;;;;;;;;5318086;26;20029;-84
2024/04/18 02:08:42;;;;;;;14.15;9.75;;;;;;;;;;5361482;26;20471;-84
2024/04/18 02:11:09;;;;;;;13.95;9.45;;;;;;;;;;5290056;26;20017;-84
2024/04/18 02:13:36;;;;;;;12.13;9.45;;;;;;;;;;5319295;26;20019;-84
2024/04/18 02:16:03;;;;;;;13.88;9.63;;;;;;;;;;5350036;26;20032;-85
2024/04/18 02:18:30;;;;;;;13.15;9.90;;;;;;;;;;5337418;26;20037;-85
2024/04/18 02:20:57;;;;;;;13.30;9.00;;;;;;;;;;5323329;26;20039;-85
2024/04/18 02:23:24;;;;;;;14.68;9.10;;;;;;;;;;5321857;26;20005;-85
2024/04/18 02:25:50;;;;;;;13.60;8.88;;;;;;;;;;5321949;26;20082;-84
2024/04/18 02:28:17;;;;;;;12.10;8.60;;;;;;;;;;5334697;26;20019;-85
2024/04/18 02:30:44;;;;;;;12.65;9.25;;;;;;;;;;5292570;26;20056;-85
2024/04/18 02:33:14;;;;;;;14.27;8.25;;;;;;;;;;5319241;26;20020;-84
2024/04/18 02:35:41;;;;;;;11.57;7.72;;;;;;;;;;5347057;26;20005;-82
2024/04/18 02:38:08;;;;;;;12.10;7.88;;;;;;;;;;5352102;26;20017;-83
2024/04/18 02:40:37;;;;;;;16.15;9.73;;;;;;;;;;5347269;26;20005;-84
2024/04/18 02:43:04;;;;;;;12.13;8.75;;;;;;;;;;5314730;26;20029;-85
2024/04/18 02:45:31;;;;;;;11.25;8.32;;;;;;;;;;5325878;26;20459;-85
2024/04/18 02:47:58;;;;;;;10.95;8.05;;;;;;;;;;5364248;26;20000;-82
2024/04/18 02:50:25;;;;;;;11.70;8.52;;;;;;;;;;5311589;26;20513;-82
2024/04/18 02:52:52;;;;;;;13.25;9.00;;;;;;;;;;5347886;26;20469;-81
2024/04/18 02:55:18;;;;;;;14.38;9.02;;;;;;;;;;5329116;26;20009;-81
2024/04/18 02:57:45;;;;;;;12.43;8.13;;;;;;;;;;5319146;26;20051;-82
2024/04/18 03:00:12;;;;;;;11.35;8.00;;;;;;;;;;5318610;26;20057;-81
2024/04/18 03:02:39;;;;;;;13.70;7.82;;;;;;;;;;5334265;26;20043;-81
2024/04/18 03:05:06;;;;;;;10.43;8.32;;;;;;;;;;5326360;26;20029;-82
2024/04/18 03:07:33;;;;;;;7.55;5.38;;;;;;;;;;5325394;26;20056;-81
2024/04/18 03:10:00;;;;;;;7.53;4.93;;;;;;;;;;5325470;26;20002;-80
2024/04/18 03:12:27;;;;;;;7.78;5.00;;;;;;;;;;5322531;26;20013;-80
2024/04/18 03:14:54;;;;;;;6.00;4.28;;;;;;;;;;5323021;26;20005;-80
2024/04/18 03:17:20;;;;;;;6.70;5.00;;;;;;;;;;5365563;26;20024;-80
2024/04/18 03:19:47;;;;;;;8.50;4.97;;;;;;;;;;5321829;26;20009;-80
2024/04/18 03:22:14;;;;;;;6.20;5.10;;;;;;;;;;5352550;26;20013;-79
2024/04/18 03:24:41;;;;;;;6.75;5.10;;;;;;;;;;5347065;26;19997;-78
2024/04/18 03:27:07;;;;;;;8.75;5.68;;;;;;;;;;5326864;26;20016;-78
2024/04/18 03:29:34;;;;;;;7.35;5.20;;;;;;;;;;5351464;26;20082;-78
2024/04/18 03:32:02;;;;;;;9.82;5.80;;;;;;;;;;5351833;26;20045;-79
2024/04/18 03:34:29;;;;;;;8.52;5.45;;;;;;;;;;5352277;26;20004;-78
2024/04/18 03:36:57;;;;;;;9.27;6.50;;;;;;;;;;5322987;26;20017;-78
2024/04/18 03:39:27;;;;;;;7.22;5.50;;;;;;;;;;5294063;26;20078;-78
2024/04/18 03:41:54;;;;;;;9.00;5.45;;;;;;;;;;5294666;26;20016;-79
2024/04/18 03:44:20;;;;;;;8.63;6.10;;;;;;;;;;5295242;26;20469;-78
2024/04/18 03:46:47;;;;;;;7.32;6.15;;;;;;;;;;5298133;26;20063;-79
2024/04/18 03:49:14;;;;;;;7.43;5.82;;;;;;;;;;5326028;26;20032;-79
2024/04/18 03:51:41;;;;;;;7.97;5.15;;;;;;;;;;5298654;26;20380;-79
2024/04/18 03:54:07;;;;;;;7.43;5.57;;;;;;;;;;5327356;26;20001;-79
2024/04/18 03:56:35;;;;;;;7.55;5.75;;;;;;;;;;5327146;26;20437;-79
2024/04/18 03:59:02;;;;;;;7.95;6.43;;;;;;;;;;5297881;26;20040;-77
2024/04/18 04:01:29;;;;;;;8.50;5.88;;;;;;;;;;5322722;26;20009;-79
2024/04/18 04:03:56;;;;;;;7.82;5.95;;;;;;;;;;5323649;26;20000;-80
2024/04/18 04:06:23;;;;;;;10.27;6.13;;;;;;;;;;5321790;26;20001;-80
2024/04/18 04:08:50;;;;;;;9.43;5.80;;;;;;;;;;5321568;26;20397;-80
2024/04/18 04:11:18;;;;;;;8.52;6.97;;;;;;;;;;5320724;26;20017;-80
2024/04/18 04:13:45;;;;;;;7.03;5.93;;;;;;;;;;5322214;26;20005;-80
2024/04/18 04:16:12;;;;;;;7.63;5.78;;;;;;;;;;5317307;26;20021;-78
2024/04/18 04:18:38;;;;;;;6.95;5.47;;;;;;;;;;5319473;26;20004;-78
2024/04/18 04:21:06;;;;;;;6.53;5.18;;;;;;;;;;5318863;26;20016;-79
2024/04/18 04:23:33;;;;;;;7.28;5.72;;;;;;;;;;5321851;26;20016;-79
2024/04/18 04:26:00;;;;;;;7.72;5.78;;;;;;;;;;5321422;26;20085;-79
2024/04/18 04:28:27;;;;;;;7.13;5.45;;;;;;;;;;5321428;26;20009;-79
2024/04/18 04:30:54;;;;;;;6.50;5.60;;;;;;;;;;5307403;26;20673;-79
2024/04/18 04:33:21;;;;;;;9.38;6.10;;;;;;;;;;5321506;26;20015;-80
2024/04/18 04:35:47;;;;;;;6.93;5.82;;;;;;;;;;5320716;26;20029;-80
2024/04/18 04:38:14;;;;;;;12.70;6.18;;;;;;;;;;5320922;26;20081;-80
2024/04/18 04:40:41;;;;;;;8.90;6.50;;;;;;;;;;5320301;26;20013;-79
2024/04/18 04:43:08;;;;;;;8.63;6.57;;;;;;;;;;5321573;26;20008;-80
2024/04/18 04:45:34;;;;;;;9.10;6.80;;;;;;;;;;5307632;26;20017;-79
2024/04/18 04:48:01;;;;;;;9.88;7.53;;;;;;;;;;5321246;26;20058;-80
2024/04/18 04:50:28;;;;;;;9.27;7.10;;;;;;;;;;5318102;26;20001;-77
2024/04/18 04:52:55;;;;;;;9.60;7.25;;;;;;;;;;5322602;26;20016;-79
2024/04/18 04:55:22;;;;;;;10.20;7.13;;;;;;;;;;5325598;26;20013;-81
2024/04/18 04:57:49;;;;;;;10.10;7.22;;;;;;;;;;5303739;26;20009;-81
2024/04/18 05:00:16;;;;;;;9.73;7.38;;;;;;;;;;5320534;26;20004;-81
2024/04/18 05:02:43;;;;;;;8.60;6.50;;;;;;;;;;5322306;26;20041;-83
2024/04/18 05:05:13;;;;;;;10.57;7.30;;;;;;;;;;5322520;26;20041;-80
2024/04/18 05:07:40;;;;;;;11.75;8.02;;;;;;;;;;5354396;26;20207;-79
2024/04/18 05:10:06;;;;;;;9.68;7.35;;;;;;;;;;5366444;26;20001;-78
2024/04/18 05:12:33;;;;;;;8.05;7.03;;;;;;;;;;5367481;26;20056;-79
2024/04/18 05:15:01;;;;;;;8.63;6.78;;;;;;;;;;5319925;26;20340;-81
2024/04/18 05:17:28;;;;;;;8.75;7.00;;;;;;;;;;5349915;26;20015;-80
2024/04/18 05:19:55;;;;;;;10.32;7.10;;;;;;;;;;5330375;26;19997;-75
2024/04/18 05:22:22;;;;;;;9.68;7.22;;;;;;;;;;5306468;26;20013;-85
2024/04/18 05:24:49;;;;;;;9.13;7.22;;;;;;;;;;5288303;26;20001;-82
2024/04/18 05:27:15;;;;;;;11.40;8.10;;;;;;;;;;5320248;26;20009;-85
2024/04/18 05:32:28;;;;;;;8.55;7.22;;;;;;;;;;5358957;26;20001;-82
2024/04/18 05:34:55;;;;;;;12.48;8.15;;;;;;;;;;5318296;26;20041;-84
2024/04/18 05:37:21;;;;;;;10.80;7.97;;;;;;;;;;5345699;26;20016;-79
2024/04/18 05:39:49;;;;;;;9.02;7.47;;;;;;;;;;5303519;26;20005;-79
2024/04/18 05:42:15;;;;;;;10.82;8.52;;;;;;;;;;5316341;26;20008;-77
2024/04/18 05:44:43;;;;;;;11.13;8.20;;;;;;;;;;5327450;26;20032;-77
2024/04/18 05:47:09;;;;;;;12.13;7.80;;;;;;;;;;5312271;26;20332;-77
2024/04/18 05:49:36;;;;;;;9.25;7.18;;;;;;;;;;5342745;26;20005;-77
2024/04/18 05:52:03;;;;;;;10.63;8.02;;;;;;;;;;5313699;26;20041;-78
2024/04/18 05:54:30;;;;;;;9.95;6.93;;;;;;;;;;5320265;26;20040;-78
2024/04/18 05:56:57;;;;;;;10.27;8.20;;;;;;;;;;5322541;26;20001;-77
2024/04/18 05:59:24;;;;;;;10.40;8.00;;;;;;;;;;5301963;26;20009;-77
2024/04/18 06:01:51;;;;;;;9.27;7.50;;;;;;;;;;5342543;26;20012;-77
2024/04/18 06:04:18;;;;;;;8.13;7.20;;;;;;;;;;5312327;26;20418;-75
2024/04/18 06:06:45;;;;;;;10.43;7.28;;;;;;;;;;5313445;26;20001;-77
2024/04/18 06:09:12;;;;;;;9.68;7.80;;;;;;;;;;5302035;26;20009;-76
2024/04/18 06:11:43;;;;;;;11.30;7.32;;;;;;;;;;5304625;26;20436;-77
2024/04/18 06:14:11;;;;;;;8.45;7.15;;;;;;;;;;5312012;26;20009;-78
2024/04/18 06:16:37;;;;;;;6.57;5.80;;;;;;;;;;5311993;26;20047;-77
2024/04/18 06:19:04;;;;;;;7.07;5.82;;;;;;;;;;5312089;26;20004;-76
2024/04/18 06:21:31;;;;;;;8.00;5.75;;;;;;;;;;5327224;26;20086;-77
2024/04/18 06:23:58;;;;;;;7.72;5.78;;;;;;;;;;5317965;26;20004;-76
2024/04/18 06:26:25;;;;;;;7.07;6.07;;;;;;;;;;5321108;26;20009;-77
2024/04/18 06:28:52;;;;;;;7.47;5.97;;;;;;;;;;5311461;26;20773;-77
2024/04/18 06:31:18;;;;;;;7.05;5.85;;;;;;;;;;5309197;26;20080;-78
2024/04/18 06:33:45;;;;;;;6.93;5.93;;;;;;;;;;5314257;26;20020;-77
2024/04/18 06:36:16;;;;;;;5.75;5.10;;;;;;;;;;5294933;26;20001;-78
2024/04/18 06:38:42;;;;;;;6.53;5.10;;;;;;;;;;5330227;26;20012;-79
2024/04/18 06:41:09;;;;;;;5.80;5.18;;;;;;;;;;5303929;26;20012;-79
2024/04/18 06:43:36;;;;;;;5.88;5.20;;;;;;;;;;5319102;26;20000;-79
2024/04/18 06:46:03;;;;;;;6.30;5.43;;;;;;;;;;5342157;26;20013;-77
2024/04/18 06:48:29;;;;;;;6.45;5.55;;;;;;;;;;5339749;26;20024;-80
2024/04/18 06:50:56;;;;;;;4.90;4.40;;;;;;;;;;5339489;26;20034;-79
2024/04/18 06:53:23;;;;;;;6.95;5.03;;;;;;;;;;5310710;26;20040;-80
2024/04/18 06:55:50;;;;;;;5.78;5.18;;;;;;;;;;5311833;26;20005;-79
2024/04/18 06:58:17;;;;;;;5.35;4.70;;;;;;;;;;5348626;26;20058;-80
2024/04/18 07:00:46;;;;;;;5.18;4.40;;;;;;;;;;5292171;26;20015;-79
2024/04/18 07:03:14;;;;;;;6.25;5.20;;;;;;;;;;5293568;26;20016;-78
2024/04/18 07:05:41;;;;;;;5.25;4.75;;;;;;;;;;5310036;26;20073;-79
2024/04/18 07:08:07;;;;;;;4.30;3.90;;;;;;;;;;5314079;26;20015;-78
2024/04/18 07:10:34;;;;;;;5.75;5.15;;;;;;;;;;5327597;26;20009;-78
2024/04/18 07:13:02;;;;;;;5.90;5.30;;;;;;;;;;5315814;26;20001;-78
2024/04/18 07:15:28;;;;;;;7.30;5.28;;;;;;;;;;5319353;26;20471;-79
2024/04/18 07:17:57;;;;;;;6.45;4.93;;;;;;;;;;5296775;26;21107;-79
2024/04/18 07:20:24;;;;;;;5.57;5.00;;;;;;;;;;5312186;26;20430;-78
2024/04/18 07:22:52;;;;;;;5.72;5.00;;;;;;;;;;5306273;26;20017;-78
2024/04/18 07:25:19;;;;;;;7.93;5.50;;;;;;;;;;5276657;26;20001;-78
2024/04/18 07:27:48;;;;;;;5.10;4.47;;;;;;;;;;5300919;26;20001;-78
2024/04/18 07:30:15;;;;;;;5.68;5.07;;;;;;;;;;5325846;26;20006;-78
2024/04/18 07:32:42;;;;;;;5.82;5.28;;;;;;;;;;5311233;26;20006;-78
2024/04/18 07:35:09;;;;;;;8.43;4.97;;;;;;;;;;5319316;26;20001;-79
2024/04/18 07:37:36;;;;;;;5.00;4.50;;;;;;;;;;5308315;26;20019;-81
2024/04/18 07:40:15;;;;;;;6.78;4.35;;;;;;;;;;5297301;26;20017;-79
2024/04/18 07:42:42;;;;;;;4.43;4.03;;;;;;;;;;5306971;26;20086;-79
2024/04/18 07:45:09;;;;;;;5.15;4.22;;;;;;;;;;5307130;26;20024;-79
2024/04/18 07:47:37;;;;;;;5.80;4.68;;;;;;;;;;5331081;26;20020;-79
2024/04/18 07:50:04;;;;;;;6.10;4.85;;;;;;;;;;5310112;26;20806;-79
2024/04/18 07:52:30;;;;;;;6.05;4.45;;;;;;;;;;5347049;26;20000;-79
2024/04/18 07:54:57;;;;;;;6.00;4.97;;;;;;;;;;5292196;26;20010;-79
2024/04/18 07:57:26;;;;;;;6.10;4.30;;;;;;;;;;5306644;26;20009;-78
2024/04/18 07:59:54;;;;;;;7.10;4.43;;;;;;;;;;5309983;26;20005;-79
2024/04/18 08:02:21;;;;;;;5.95;4.93;;;;;;;;;;5322347;26;20010;-79
2024/04/18 08:04:51;;;;;;;7.05;5.78;;;;;;;;;;5312262;26;20018;-79
2024/04/18 08:07:25;;;;;;;7.75;4.75;;;;;;;;;;5308461;26;20351;-79
2024/04/18 08:09:58;;;;;;;6.97;5.85;;;;;;;;;;5328212;26;20013;-79
2024/04/18 08:12:31;;;;;;;6.88;5.32;;;;;;;;;;5326692;26;20024;-79
2024/04/18 08:15:05;;;;;;;8.18;6.65;;;;;;;;;;5308311;26;20033;-79
2024/04/18 08:17:39;;;;;;;7.50;5.90;;;;;;;;;;5306187;26;20056;-79
2024/04/18 08:20:07;;;;;;;8.20;5.90;;;;;;;;;;5312125;26;20032;-79
2024/04/18 08:22:34;;;;;;;8.18;6.55;;;;;;;;;;5334519;26;20001;-79
2024/04/18 08:25:03;;;;;;;8.73;6.20;;;;;;;;;;5303040;26;20013;-79
2024/04/18 08:27:29;;;;;;;7.15;5.75;;;;;;;;;;5334300;26;20362;-79
2024/04/18 08:29:56;;;;;;;8.25;5.88;;;;;;;;;;5325997;26;20422;-79
2024/04/18 08:32:23;;;;;;;7.40;5.72;;;;;;;;;;5324136;26;20041;-79
2024/04/18 08:34:50;;;;;;;7.63;6.03;;;;;;;;;;5314811;26;20624;-79
2024/04/18 08:37:17;;;;;;;6.63;5.47;;;;;;;;;;5308102;26;20005;-79
2024/04/18 08:39:43;;;;;;;6.18;5.53;;;;;;;;;;5301870;26;20012;-79
2024/04/18 08:42:13;;;;;;;5.70;5.10;;;;;;;;;;5317170;26;20009;-79
2024/04/18 08:44:40;;;;;;;6.18;5.05;;;;;;;;;;5317437;26;20009;-83
2024/04/18 08:47:08;;;;;;;6.47;4.80;;;;;;;;;;5337913;26;20009;-79
2024/04/18 08:49:35;;;;;;;7.22;5.63;;;;;;;;;;5306670;26;19997;-78
2024/04/18 08:52:02;;;;;;;6.45;5.28;;;;;;;;;;5351584;26;20002;-78
2024/04/18 08:54:30;;;;;;;5.85;5.00;;;;;;;;;;5334085;26;20015;-78
2024/04/18 08:56:57;;;;;;;6.00;4.90;;;;;;;;;;5305579;26;20001;-78
2024/04/18 08:59:24;;;;;;;5.95;5.25;;;;;;;;;;5318318;26;20355;-78
2024/04/18 09:01:51;;;;;;;6.88;4.90;;;;;;;;;;5307616;26;20012;-77
2024/04/18 09:04:18;;;;;;;5.65;4.60;;;;;;;;;;5312466;26;20356;-78
2024/04/18 09:06:45;;;;;;;7.13;5.10;;;;;;;;;;5311577;26;20057;-78
2024/04/18 09:09:18;;;;;;;7.70;5.25;;;;;;;;;;5327367;26;20034;-78
2024/04/18 09:11:48;;;;;;;5.95;4.75;;;;;;;;;;5304736;26;20001;-78
2024/04/18 09:14:15;;;;;;;5.25;4.72;;;;;;;;;;5308976;26;20010;-78
2024/04/18 09:16:43;;;;;;;5.53;4.70;;;;;;;;;;5314299;26;20335;-78
2024/04/18 09:19:09;;;;;;;6.15;4.82;;;;;;;;;;5335128;26;20393;-78
2024/04/18 09:21:39;;;;;;;5.47;4.82;;;;;;;;;;5320688;26;20006;-79
2024/04/18 09:24:06;;;;;;;7.72;4.97;;;;;;;;;;5335553;26;20010;-78
2024/04/18 09:26:33;;;;;;;4.93;4.43;;;;;;;;;;5328213;26;20020;-76
2024/04/18 09:29:00;;;;;;;5.55;4.45;;;;;;;;;;5312131;26;20400;-78
2024/04/18 09:31:27;;;;;;;4.65;3.70;;;;;;;;;;5292942;26;20002;-78
2024/04/18 09:34:07;;;;;;;8.57;3.95;;;;;;;;;;5296455;26;20019;-78
2024/04/18 09:36:35;;;;;;;6.10;4.25;;;;;;;;;;5308892;26;20005;-78
2024/04/18 09:39:03;;;;;;;4.68;3.90;;;;;;;;;;5271609;26;20005;-78
2024/04/18 09:41:30;;;;;;;4.53;3.53;;;;;;;;;;5329120;26;20599;-78
2024/04/18 09:44:16;;;;;;;6.65;3.92;;;;;;;;;;5305914;26;20017;-78
2024/04/18 09:46:43;;;;;;;5.05;4.55;;;;;;;;;;5325571;26;20021;-78
2024/04/18 09:49:11;;;;;;;4.55;4.10;;;;;;;;;;5306576;26;20037;-78
2024/04/18 09:51:38;;;;;;;4.43;3.90;;;;;;;;;;5307730;26;20002;-78
2024/04/18 09:54:05;;;;;;;4.85;3.15;;;;;;;;;;5316735;26;20019;-77
2024/04/18 09:56:33;;;;;;;5.13;4.13;;;;;;;;;;5281199;26;20005;-77
2024/04/18 09:59:00;;;;;;;5.03;3.63;;;;;;;;;;5308284;26;20016;-77
2024/04/18 10:01:29;;;;;;;5.10;4.15;;;;;;;;;;5319868;26;20756;-77
2024/04/18 10:03:58;;;;;;;6.15;3.63;;;;;;;;;;5293008;26;20020;-80
2024/04/18 10:06:30;;;;;;;2.75;2.50;;;;;;;;;;5299369;26;20020;-77
2024/04/18 10:08:57;;;;;;;3.17;2.27;;;;;;;;;;5287683;26;20006;-77
2024/04/18 10:11:24;;;;;;;3.10;2.50;;;;;;;;;;5331932;26;20324;-77
2024/04/18 10:13:51;;;;;;;3.58;2.85;;;;;;;;;;5304655;26;20023;-77
2024/04/18 10:16:19;;;;;;;3.90;2.95;;;;;;;;;;5332439;26;20041;-78
2024/04/18 10:18:46;;;;;;;4.63;2.90;;;;;;;;;;5303376;26;20090;-78
2024/04/18 10:21:22;;;;;;;4.13;3.63;;;;;;;;;;5325758;26;20740;-78
2024/04/18 10:24:06;;;;;;;4.95;3.83;;;;;;;;;;5307854;26;20021;-77
2024/04/18 10:26:34;;;;;;;4.70;3.88;;;;;;;;;;5326084;26;20348;-78
2024/04/18 10:29:01;;;;;;;6.93;4.50;;;;;;;;;;5307703;26;20009;-80
2024/04/18 10:31:28;;;;;;;6.60;4.95;;;;;;;;;;5328567;26;20518;-78
2024/04/18 10:33:55;;;;;;;5.13;4.22;;;;;;;;;;5270896;26;20057;-78
2024/04/18 10:36:23;;;;;;;3.85;3.45;;;;;;;;;;5298936;26;20009;-78
2024/04/18 10:38:50;;;;;;;5.47;4.30;;;;;;;;;;5294868;26;20009;-78
2024/04/18 10:41:17;;;;;;;5.97;4.72;;;;;;;;;;5334148;26;20018;-78
2024/04/18 10:43:45;;;;;;;4.82;3.70;;;;;;;;;;5306501;26;20096;-78
2024/04/18 10:46:12;;;;;;;5.63;4.00;;;;;;;;;;5335973;26;20001;-78
2024/04/18 10:48:39;;;;;;;7.50;4.10;;;;;;;;;;5334182;26;20080;-78
2024/04/18 10:51:07;;;;;;;5.78;3.60;;;;;;;;;;5333065;26;20021;-77
2024/04/18 10:53:34;;;;;;;6.38;4.45;;;;;;;;;;5308471;26;20005;-74
2024/04/18 10:56:01;;;;;;;5.93;4.78;;;;;;;;;;5303804;26;20017;-75
2024/04/18 10:58:28;;;;;;;5.40;4.10;;;;;;;;;;5306762;26;20004;-75
2024/04/18 11:00:58;;;;;;;4.90;4.10;;;;;;;;;;5321085;26;20565;-75
2024/04/18 11:03:27;;;;;;;4.82;3.70;;;;;;;;;;5323293;26;20024;-77
2024/04/18 11:05:57;;;;;;;4.40;3.83;;;;;;;;;;5320331;26;20013;-75
2024/04/18 11:08:24;;;;;;;6.10;3.90;;;;;;;;;;5329284;26;20018;-82
2024/04/18 11:10:51;;;;;;;4.32;3.45;;;;;;;;;;5322431;26;20065;-78
2024/04/18 11:13:18;;;;;;;5.57;4.07;;;;;;;;;;5311199;26;20021;-78
2024/04/18 11:15:48;;;;;;;4.35;3.45;;;;;;;;;;5310723;26;20009;-78
2024/04/18 11:18:24;;;;;;;4.50;4.03;;;;;;;;;;5318998;26;20090;-78
2024/04/18 11:20:53;;;;;;;4.97;3.90;;;;;;;;;;5331122;26;20082;-78
2024/04/18 11:23:23;;;;;;;5.13;3.97;;;;;;;;;;5333836;26;20042;-78
2024/04/18 11:26:12;;;;;;;5.03;3.85;;;;;;;;;;5301217;26;20001;-78
2024/04/18 11:28:40;;;;;;;7.22;3.92;;;;;;;;;;5313019;26;20018;-78
2024/04/18 11:31:07;;;;;;;3.92;3.63;;;;;;;;;;5289384;26;20037;-78
2024/04/18 11:33:35;;;;;;;3.45;3.13;;;;;;;;;;5302245;26;20014;-78
2024/04/18 11:36:02;;;;;;;4.13;3.10;;;;;;;;;;5325996;26;20038;-78
2024/04/18 11:38:29;;;;;;;5.18;3.72;;;;;;;;;;5292610;26;20017;-78
2024/04/18 11:40:58;;;;;;;5.30;3.53;;;;;;;;;;5306596;26;20017;-78
2024/04/18 11:43:25;;;;;;;4.72;2.97;;;;;;;;;;5314875;26;20014;-79
2024/04/18 11:45:52;;;;;;;4.25;2.55;;;;;;;;;;5305616;26;20414;-77
2024/04/18 11:48:19;;;;;;;4.18;2.67;;;;;;;;;;5304258;26;20005;-77
2024/04/18 11:50:46;;;;;;;6.85;3.47;;;;;;;;;;5308618;26;20004;-78
2024/04/18 11:53:13;;;;;;;6.25;3.70;;;;;;;;;;5297878;26;20015;-77
2024/04/18 11:55:40;;;;;;;13.07;5.25;;;;;;;;;;5308486;26;20005;-77
2024/04/18 11:58:07;;;;;;;4.88;4.18;;;;;;;;;;5291860;26;20002;-78
2024/04/18 12:00:33;;;;;;;6.85;4.63;;;;;;;;;;5310532;26;20024;-78
2024/04/18 12:03:01;;;;;;;6.82;4.50;;;;;;;;;;5295932;26;20001;-77
2024/04/18 12:05:28;;;;;;;9.35;4.60;;;;;;;;;;5326906;26;20055;-78
2024/04/18 12:07:54;;;;;;;7.10;4.55;;;;;;;;;;5333433;26;20013;-78
2024/04/18 12:10:21;;;;;;;8.60;4.40;;;;;;;;;;5337646;26;20005;-78
2024/04/18 12:12:48;;;;;;;5.93;4.50;;;;;;;;;;5340201;26;20020;-78
2024/04/18 12:15:15;;;;;;;4.38;3.97;;;;;;;;;;5340415;26;20001;-78
2024/04/18 12:17:45;;;;;;;6.13;3.97;;;;;;;;;;5296051;26;20021;-78
2024/04/18 12:20:12;;;;;;;6.70;3.97;;;;;;;;;;5318980;26;20006;-78
2024/04/18 12:22:39;;;;;;;7.00;4.70;;;;;;;;;;5313686;26;20059;-78
2024/04/18 12:25:06;;;;;;;6.18;4.65;;;;;;;;;;5300858;26;20017;-79
2024/04/18 12:27:34;;;;;;;6.00;4.97;;;;;;;;;;5301965;26;20407;-78
2024/04/18 12:30:01;;;;;;;4.50;4.05;;;;;;;;;;5324356;26;20005;-78
2024/04/18 12:32:29;;;;;;;5.00;3.90;;;;;;;;;;5337698;26;20029;-78
2024/04/18 12:34:56;;;;;;;4.30;3.72;;;;;;;;;;5325213;26;20005;-78
2024/04/18 12:37:23;;;;;;;3.20;2.78;;;;;;;;;;5315858;26;20016;-78
2024/04/18 12:39:51;;;;;;;4.20;2.33;;;;;;;;;;5310450;26;20001;-78
2024/04/18 12:42:18;;;;;;;2.78;2.03;;;;;;;;;;5311116;26;20024;-78
2024/04/18 12:44:45;;;;;;;2.47;1.98;;;;;;;;;;5311638;26;20015;-79
2024/04/18 12:47:12;;;;;;;2.10;1.90;;;;;;;;;;5338411;26;20017;-78
2024/04/18 12:49:44;;;;;;;3.53;2.13;;;;;;;;;;5315184;26;20033;-78
2024/04/18 12:52:12;;;;;;;2.25;1.92;;;;;;;;;;5329870;26;20476;-78
2024/04/18 12:54:39;;;;;;;2.63;2.00;;;;;;;;;;5315217;26;20002;-78
2024/04/18 12:57:07;;;;;;;3.03;2.53;;;;;;;;;;5325931;26;20016;-78
2024/04/18 12:59:33;;;;;;;3.75;2.88;;;;;;;;;;5314550;26;20012;-78
2024/04/18 13:02:00;;;;;;;2.92;2.63;;;;;;;;;;5301390;26;20004;-79
2024/04/18 13:04:28;;;;;;;2.40;2.20;;;;;;;;;;5300613;26;20013;-79
2024/04/18 13:06:55;;;;;;;2.63;2.22;;;;;;;;;;5305332;26;20005;-78
2024/04/18 13:09:22;;;;;;;2.88;2.50;;;;;;;;;;5310940;26;20002;-78
2024/04/18 13:11:49;;;;;;;2.65;2.45;;;;;;;;;;5339663;26;20001;-79
2024/04/18 13:14:16;;;;;;;2.55;2.17;;;;;;;;;;5318397;26;20009;-79
2024/04/18 13:16:43;;;;;;;2.60;2.22;;;;;;;;;;5348648;26;20020;-79
2024/04/18 13:19:10;;;;;;;2.30;2.10;;;;;;;;;;5322670;26;20005;-77
2024/04/18 13:21:37;;;;;;;2.28;2.08;;;;;;;;;;5331630;26;20471;-78
2024/04/18 13:24:08;;;;;;;2.78;2.47;;;;;;;;;;5302291;26;20043;-77
2024/04/18 13:26:35;;;;;;;2.10;1.90;;;;;;;;;;5323226;26;20351;-78
2024/04/18 13:29:02;;;;;;;5.68;1.98;;;;;;;;;;5292743;26;20017;-78
2024/04/18 13:31:29;;;;;;;4.28;1.60;;;;;;;;;;5316192;26;20006;-78
2024/04/18 13:33:58;;;;;;;1.20;1.10;;;;;;;;;;5294942;26;20016;-79
2024/04/18 13:36:26;;;;;;;1.48;1.00;;;;;;;;;;5332395;26;20010;-78
2024/04/18 13:38:54;;;;;;;1.65;1.00;;;;;;;;;;5313650;26;20015;-78
2024/04/18 13:41:21;;;;;;;1.20;1.02;;;;;;;;;;5337939;26;20015;-78
2024/04/18 13:43:49;;;;;;;2.50;1.38;;;;;;;;;;5313253;26;20055;-79
2024/04/18 13:46:17;;;;;;;2.30;1.20;;;;;;;;;;5323644;26;20002;-78
2024/04/18 13:48:44;;;;;;;1.10;1.00;;;;;;;;;;5311228;26;20077;-78
2024/04/18 13:51:12;;;;;;;1.10;0.90;;;;;;;;;;5301190;26;20001;-78
2024/04/18 13:53:40;;;;;;;1.25;1.15;;;;;;;;;;5308484;26;20024;-78
2024/04/18 13:56:08;;;;;;;1.25;1.15;;;;;;;;;;5327651;26;20065;-78
2024/04/18 13:58:37;;;;;;;1.95;1.27;;;;;;;;;;5332512;26;20001;-77
2024/04/18 14:01:04;;;;;;;2.42;1.20;;;;;;;;;;5360390;26;20081;-77
2024/04/18 14:03:31;;;;;;;1.52;1.30;;;;;;;;;;5342510;26;20059;-77
2024/04/18 14:05:58;;;;;;;0.88;0.88;;;;;;;;;;5337000;26;20010;-77
2024/04/18 14:08:25;;;;;;;1.13;1.02;;;;;;;;;;5311824;26;20032;-78
2024/04/18 14:10:53;;;;;;;1.23;1.05;;;;;;;;;;5337506;26;20001;-77
2024/04/18 14:13:20;;;;;;;1.20;1.00;;;;;;;;;;5308421;26;20009;-77
2024/04/18 14:18:48;;;;;;;1.00;0.85;;;;;;;;;;5332484;26;20426;-77
2024/04/18 14:21:15;;;;;;;1.27;1.00;;;;;;;;;;5332963;26;20033;-78
2024/04/18 14:23:42;;;;;;;0.77;0.70;;;;;;;;;;5315008;26;20009;-77
2024/04/18 14:26:10;;;;;;;2.25;1.02;;;;;;;;;;5324515;26;20415;-78
2024/04/18 14:28:37;;;;;;;1.67;1.17;;;;;;;;;;5312438;26;20001;-78
2024/04/18 14:31:10;;;;;;;2.20;1.15;;;;;;;;;;5302018;26;20001;-77
2024/04/18 14:33:38;;;;;;;3.03;1.63;;;;;;;;;;5326980;26;20082;-77
2024/04/18 14:36:05;;;;;;;1.08;0.90;;;;;;;;;;5339525;26;20036;-79
2024/04/18 14:38:32;;;;;;;2.17;1.20;;;;;;;;;;5306456;26;20060;-77
2024/04/18 14:40:59;;;;;;;1.00;1.00;;;;;;;;;;5329085;26;20010;-77
2024/04/18 14:43:37;;;;;;;1.58;1.48;;;;;;;;;;5312097;26;20084;-77
2024/04/18 14:46:07;;;;;;;1.67;1.55;;;;;;;;;;5332178;26;19997;-77
2024/04/18 14:48:35;;;;;;;1.30;1.20;;;;;;;;;;5335304;26;20008;-77